Hishou Maru — JM6643 — position and weather

sailwx.info

Track history (hours):
 
Tides and Currents Weather Stations Pressure Air Temp Water Temp Dewpoint Dewpoint Depression Visibility Wind Speed Wind Dir Waves Ship Positions

Hishou Maru

Last reported at 2017-Sep-21 17:30 UTC. Time now 2017-Sep-21 17:44 UTC.
Position N 34°42' E 135°15'.

Length 76 m; draft 4.1 m.

Type: Cargo ship. MMSI: 431600889.

Date/timePositionNaut miles runAvg speedWind from/ knotsBaromVisibWave heightAir tempDewpointWater temp
2017-Sep-21 17:30N 34°42' E 135°15'0 0.0
2017-Sep-21 17:00N 34°42' E 135°15'0 0.0
2017-Sep-21 16:30N 34°42' E 135°15'0 0.0
2017-Sep-21 16:00N 34°42' E 135°15'0 0.0
2017-Sep-21 15:30N 34°42' E 135°15'0 0.0
2017-Sep-21 15:00N 34°42' E 135°15'0 0.2
2017-Sep-21 14:30N 34°42' E 135°15'4 7.7
2017-Sep-21 14:00N 34°38' E 135°16'510.3
2017-Sep-21 13:30N 34°36' E 135°10'510.1
2017-Sep-21 13:00N 34°35' E 135°04'5 8.6
2017-Sep-21 12:26N 34°37' E 134°58'3 0.1
2017-Sep-20 09:07N 34°37' E 135°01'213.1
2017-Sep-20 09:00N 34°36' E 135°03'611.4
2017-Sep-20 08:30N 34°37' E 135°10'510.5
2017-Sep-20 08:00N 34°38' E 135°16'4 7.4
2017-Sep-20 07:30N 34°42' E 135°15'0 0.0
2017-Sep-20 07:00N 34°42' E 135°15'0 0.0
2017-Sep-20 06:30N 34°42' E 135°15'0 0.0
2017-Sep-20 06:00N 34°42' E 135°15'0 0.0
2017-Sep-20 05:30N 34°42' E 135°15'0 0.0
2017-Sep-20 05:00N 34°42' E 135°15'0 0.0
2017-Sep-20 04:30N 34°42' E 135°15'0 0.0
2017-Sep-20 04:00N 34°42' E 135°15'0 0.0
2017-Sep-20 03:30N 34°42' E 135°15'0 0.0
2017-Sep-20 03:00N 34°42' E 135°15'0 0.0
2017-Sep-20 02:30N 34°42' E 135°15'0 0.0
2017-Sep-20 02:00N 34°42' E 135°15'0 0.0
2017-Sep-20 01:30N 34°42' E 135°15'0 0.0
2017-Sep-20 01:00N 34°42' E 135°15'0 0.0
2017-Sep-20 00:30N 34°42' E 135°15'0 0.0
2017-Sep-20 00:00N 34°42' E 135°15'0 0.0
2017-Sep-19 23:30N 34°42' E 135°15'0 0.0
2017-Sep-19 23:00N 34°42' E 135°15'0 0.0
2017-Sep-19 22:30N 34°42' E 135°15'0 0.0
2017-Sep-19 22:00N 34°42' E 135°15'0 0.0
2017-Sep-19 21:30N 34°42' E 135°15'0 0.0
2017-Sep-19 21:00N 34°42' E 135°15'0 0.0
2017-Sep-19 20:30N 34°42' E 135°15'0 0.0
2017-Sep-19 20:00N 34°42' E 135°15'0 0.0
2017-Sep-19 19:30N 34°42' E 135°15'0 0.0
2017-Sep-19 19:00N 34°42' E 135°15'0 0.0
2017-Sep-19 18:30N 34°42' E 135°15'0 0.0
2017-Sep-19 18:00N 34°42' E 135°15'0 0.0
2017-Sep-19 17:30N 34°42' E 135°15'0 0.0
2017-Sep-19 17:00N 34°42' E 135°15'0 0.0
2017-Sep-19 16:30N 34°42' E 135°15'0 0.0
2017-Sep-19 16:00N 34°42' E 135°15'0 0.0
2017-Sep-19 15:30N 34°42' E 135°15'0 0.0
2017-Sep-19 15:00N 34°42' E 135°15'0 0.0
2017-Sep-19 14:30N 34°42' E 135°15'0 0.0
2017-Sep-19 14:00N 34°42' E 135°15'0 0.0
2017-Sep-19 13:30N 34°42' E 135°15'0 0.0
2017-Sep-19 13:00N 34°42' E 135°15'0 0.0
2017-Sep-19 12:30N 34°42' E 135°15'0 0.0
2017-Sep-19 12:00N 34°42' E 135°15'0 0.0
2017-Sep-19 11:30N 34°42' E 135°15'0 0.0
2017-Sep-19 11:00N 34°42' E 135°15'0 0.0
2017-Sep-19 10:30N 34°42' E 135°15'0 0.0
2017-Sep-19 10:00N 34°42' E 135°15'0 0.0
2017-Sep-19 09:30N 34°42' E 135°15'0 0.0
2017-Sep-19 09:00N 34°42' E 135°15'0 0.0
2017-Sep-19 08:30N 34°42' E 135°15'0 0.0
2017-Sep-19 08:00N 34°42' E 135°15'0 0.0
2017-Sep-19 07:30N 34°42' E 135°15'0 0.0
2017-Sep-19 07:00N 34°42' E 135°15'0 0.0
2017-Sep-19 06:30N 34°42' E 135°15'0 0.0
2017-Sep-19 06:00N 34°42' E 135°15'0 0.0
2017-Sep-19 05:30N 34°42' E 135°15'0 0.0
2017-Sep-19 05:00N 34°42' E 135°15'0 0.0
2017-Sep-19 04:30N 34°42' E 135°15'0 0.0
2017-Sep-19 04:00N 34°42' E 135°15'0 0.0
2017-Sep-19 03:30N 34°42' E 135°15'0 0.0
2017-Sep-19 03:00N 34°42' E 135°15'0 0.0
2017-Sep-19 02:30N 34°42' E 135°15'0 0.0
2017-Sep-19 02:00N 34°42' E 135°15'0 0.0
2017-Sep-19 01:30N 34°42' E 135°15'0 0.0
2017-Sep-19 01:00N 34°42' E 135°15'0 0.0
2017-Sep-19 00:30N 34°42' E 135°15'0 0.0
2017-Sep-19 00:00N 34°42' E 135°15'2 4.7
2017-Sep-18 23:30N 34°40' E 135°15'4 8.2
2017-Sep-18 22:59N 34°37' E 135°12'511.1
2017-Sep-18 22:30N 34°35' E 135°05'4 8.6
2017-Sep-18 22:00N 34°37' E 135°01'4 8.9
2017-Sep-18 21:30N 34°36' E 134°56'7 0.1
2017-Sep-16 18:34N 34°38' E 134°48'611.9
2017-Sep-16 18:05N 34°37' E 134°55'112.0
2017-Sep-16 18:00N 34°37' E 134°56'511.0
2017-Sep-16 17:30N 34°37' E 135°03'611.1
2017-Sep-16 17:00N 34°37' E 135°09'611.4
2017-Sep-16 16:30N 34°38' E 135°16'4 7.4
2017-Sep-16 16:00N 34°42' E 135°15'0 0.0
2017-Sep-16 15:30N 34°42' E 135°15'0 0.0
2017-Sep-16 15:00N 34°42' E 135°15'0 0.0
2017-Sep-16 14:30N 34°42' E 135°15'0 0.0
2017-Sep-16 14:00N 34°42' E 135°15'0 0.0
2017-Sep-16 13:30N 34°42' E 135°15'0 0.0
2017-Sep-16 13:00N 34°42' E 135°15'0 0.0
2017-Sep-16 12:30N 34°42' E 135°15'0 0.0
2017-Sep-16 12:00N 34°42' E 135°15'0 0.0
2017-Sep-16 11:30N 34°42' E 135°15'0 0.0
2017-Sep-16 11:00N 34°42' E 135°15'0 0.0
2017-Sep-16 10:30N 34°42' E 135°15'0 0.0
2017-Sep-16 10:00N 34°42' E 135°15'0 0.0
2017-Sep-16 09:30N 34°42' E 135°15'0 0.0
2017-Sep-16 09:00N 34°42' E 135°15'0 0.0
2017-Sep-16 08:30N 34°42' E 135°15'0 0.0
2017-Sep-16 08:00N 34°42' E 135°15'0 0.0
2017-Sep-16 07:30N 34°42' E 135°15'0 0.0
2017-Sep-16 07:00N 34°42' E 135°15'0 0.0
2017-Sep-16 06:30N 34°42' E 135°15'0 0.0
2017-Sep-16 06:00N 34°42' E 135°15'0 0.0
2017-Sep-16 05:30N 34°42' E 135°15'0 0.0
2017-Sep-16 05:00N 34°42' E 135°15'0 0.0
2017-Sep-16 04:30N 34°42' E 135°15'0 0.0
2017-Sep-16 04:00N 34°42' E 135°15'0 0.0
2017-Sep-16 03:30N 34°42' E 135°15'0 0.0
2017-Sep-16 03:00N 34°42' E 135°15'0 0.0
2017-Sep-16 02:30N 34°42' E 135°15'0 0.0
2017-Sep-16 02:00N 34°42' E 135°15'0 0.0
2017-Sep-16 01:30N 34°42' E 135°15'0 0.0
2017-Sep-16 01:00N 34°42' E 135°15'0 0.0
2017-Sep-16 00:30N 34°42' E 135°15'0 0.0
2017-Sep-16 00:00N 34°42' E 135°15'0 0.0
2017-Sep-15 23:30N 34°42' E 135°15'0 0.0
2017-Sep-15 23:00N 34°42' E 135°15'0 0.0
2017-Sep-15 22:30N 34°42' E 135°15'0 0.0
2017-Sep-15 22:00N 34°42' E 135°15'0 0.0
2017-Sep-15 21:30N 34°42' E 135°15'0 0.0
2017-Sep-15 21:00N 34°42' E 135°15'0 0.0
2017-Sep-15 20:30N 34°42' E 135°15'0 0.0
2017-Sep-15 20:00N 34°42' E 135°15'0 0.0
2017-Sep-15 19:30N 34°42' E 135°15'0 0.0
2017-Sep-15 19:00N 34°42' E 135°15'0 0.0
2017-Sep-15 18:30N 34°42' E 135°15'0 0.0
2017-Sep-15 18:00N 34°42' E 135°15'0 0.0
2017-Sep-15 17:30N 34°42' E 135°15'0 0.0
2017-Sep-15 17:00N 34°42' E 135°15'0 0.0
2017-Sep-15 16:30N 34°42' E 135°15'0 0.0
2017-Sep-15 16:00N 34°42' E 135°15'0 0.0
2017-Sep-15 15:30N 34°42' E 135°15'0 0.0
2017-Sep-15 15:00N 34°42' E 135°15'0 0.0
2017-Sep-15 14:30N 34°42' E 135°15'0 0.0
2017-Sep-15 14:00N 34°42' E 135°15'0 0.0
2017-Sep-15 13:30N 34°42' E 135°15'0 0.0
2017-Sep-15 12:59N 34°42' E 135°15'0 0.0
2017-Sep-15 12:30N 34°42' E 135°15'0 0.0
2017-Sep-15 12:00N 34°42' E 135°15'0 0.0
2017-Sep-15 11:30N 34°42' E 135°15'0 0.0
2017-Sep-15 11:00N 34°42' E 135°15'0 0.0
2017-Sep-15 10:30N 34°42' E 135°15'0 0.0
2017-Sep-15 10:00N 34°42' E 135°15'0 0.0
2017-Sep-15 09:30N 34°42' E 135°15'0 0.0
2017-Sep-15 09:00N 34°42' E 135°15'0 0.0
2017-Sep-15 08:30N 34°42' E 135°15'0 0.0
2017-Sep-15 08:00N 34°42' E 135°15'0 0.0
2017-Sep-15 07:30N 34°42' E 135°15'0 0.7
2017-Sep-15 07:00N 34°42' E 135°15'4 8.7
2017-Sep-15 06:30N 34°37' E 135°15'510.8
2017-Sep-15 06:00N 34°35' E 135°09'5 9.5
2017-Sep-15 05:29N 34°36' E 135°03'1 0.1
2017-Sep-14 05:22N 34°37' E 135°02'512.4
2017-Sep-14 05:00N 34°36' E 135°07'611.8
2017-Sep-14 04:30N 34°37' E 135°14'4 8.7
2017-Sep-14 04:00N 34°42' E 135°15'0 0.6
2017-Sep-14 03:30N 34°42' E 135°15'0 0.0
2017-Sep-14 03:00N 34°42' E 135°15'0 0.0
2017-Sep-14 02:30N 34°42' E 135°15'0 0.0
2017-Sep-14 02:00N 34°42' E 135°15'0 0.0
2017-Sep-14 01:30N 34°42' E 135°15'0 0.0
2017-Sep-14 00:59N 34°42' E 135°15'0 0.0
2017-Sep-14 00:30N 34°42' E 135°15'0 0.0
2017-Sep-14 00:00N 34°42' E 135°15'0 0.0
2017-Sep-13 23:30N 34°42' E 135°15'0 0.0
2017-Sep-13 23:00N 34°42' E 135°15'0 0.0
2017-Sep-13 22:30N 34°42' E 135°15'0 0.0
2017-Sep-13 22:00N 34°42' E 135°15'0 0.0
2017-Sep-13 21:30N 34°42' E 135°15'0 0.0
2017-Sep-13 21:00N 34°42' E 135°15'0 0.0
2017-Sep-13 20:30N 34°42' E 135°15'0 0.0
2017-Sep-13 20:00N 34°42' E 135°15'0 0.0
2017-Sep-13 19:30N 34°42' E 135°15'0 0.0
2017-Sep-13 19:00N 34°42' E 135°15'0 0.0
2017-Sep-13 18:30N 34°42' E 135°15'0 0.0
2017-Sep-13 18:00N 34°42' E 135°15'0 0.0
2017-Sep-13 17:30N 34°42' E 135°15'0 0.0
2017-Sep-13 17:00N 34°42' E 135°15'0 0.0
2017-Sep-13 16:30N 34°42' E 135°15'0 0.0
2017-Sep-13 16:00N 34°42' E 135°15'0 0.0
2017-Sep-13 15:30N 34°42' E 135°15'0 0.0
2017-Sep-13 15:00N 34°42' E 135°15'0 0.0
2017-Sep-13 14:30N 34°42' E 135°15'0 0.0
2017-Sep-13 14:00N 34°42' E 135°15'0 0.0
2017-Sep-13 13:30N 34°42' E 135°15'0 0.0
2017-Sep-13 13:00N 34°42' E 135°15'0 0.0
2017-Sep-13 12:30N 34°42' E 135°15'0 0.0
2017-Sep-13 12:00N 34°42' E 135°15'0 0.0
2017-Sep-13 11:30N 34°42' E 135°15'0 0.0
2017-Sep-13 11:00N 34°42' E 135°15'0 0.0
2017-Sep-13 10:30N 34°42' E 135°15'0 0.0
2017-Sep-13 10:00N 34°42' E 135°15'0 0.0
2017-Sep-13 09:30N 34°42' E 135°15'0 0.0
2017-Sep-13 09:00N 34°42' E 135°15'0 0.0
2017-Sep-13 08:30N 34°42' E 135°15'0 0.0
2017-Sep-13 08:00N 34°42' E 135°15'0 0.0
2017-Sep-13 07:30N 34°42' E 135°15'0 0.0
2017-Sep-13 07:00N 34°42' E 135°15'0 0.0
2017-Sep-13 06:30N 34°42' E 135°15'0 0.0
2017-Sep-13 06:00N 34°42' E 135°15'0 0.0
2017-Sep-13 05:30N 34°42' E 135°15'0 0.0
2017-Sep-13 05:00N 34°42' E 135°15'0 0.0
2017-Sep-13 04:30N 34°42' E 135°15'0 0.0
2017-Sep-13 04:00N 34°42' E 135°15'0 0.0
2017-Sep-13 03:30N 34°42' E 135°15'0 0.0
2017-Sep-13 03:00N 34°42' E 135°15'0 0.0
2017-Sep-13 02:30N 34°42' E 135°15'0 0.0
2017-Sep-13 02:00N 34°42' E 135°15'0 0.0
2017-Sep-13 01:30N 34°42' E 135°15'0 0.0
2017-Sep-13 01:00N 34°42' E 135°15'0 0.0
2017-Sep-13 00:30N 34°42' E 135°15'0 0.0
2017-Sep-13 00:00N 34°42' E 135°15'0 0.0
2017-Sep-12 23:30N 34°42' E 135°15'0 0.0
2017-Sep-12 23:00N 34°42' E 135°15'0 0.0
2017-Sep-12 22:30N 34°42' E 135°15'0 0.0
2017-Sep-12 22:00N 34°42' E 135°15'0 0.0
2017-Sep-12 21:30N 34°42' E 135°15'0 0.0
2017-Sep-12 21:00N 34°42' E 135°15'0 0.0
2017-Sep-12 20:30N 34°42' E 135°15'0 0.0
2017-Sep-12 20:00N 34°42' E 135°15'0 0.0
2017-Sep-12 19:30N 34°42' E 135°15'0 0.0
2017-Sep-12 19:00N 34°42' E 135°15'0 0.0
2017-Sep-12 18:30N 34°42' E 135°15'0 0.0
2017-Sep-12 18:00N 34°42' E 135°15'0 0.0
2017-Sep-12 17:30N 34°42' E 135°15'0 0.0
2017-Sep-12 17:00N 34°42' E 135°15'0 0.0
2017-Sep-12 16:30N 34°42' E 135°15'0 0.0
2017-Sep-12 16:00N 34°42' E 135°15'0 0.0
2017-Sep-12 15:30N 34°42' E 135°15'0 0.0
2017-Sep-12 15:00N 34°42' E 135°15'0 0.0
2017-Sep-12 14:30N 34°42' E 135°15'0 0.0
2017-Sep-12 14:00N 34°42' E 135°15'0 0.0
2017-Sep-12 13:30N 34°42' E 135°15'0 0.0
2017-Sep-12 13:00N 34°42' E 135°15'0 0.0
2017-Sep-12 12:30N 34°42' E 135°15'0 0.0
2017-Sep-12 12:00N 34°42' E 135°15'0 0.0
2017-Sep-12 11:30N 34°42' E 135°15'0 0.0
2017-Sep-12 11:00N 34°42' E 135°15'0 0.0
2017-Sep-12 10:30N 34°42' E 135°15'0 0.0
2017-Sep-12 10:00N 34°42' E 135°15'0 0.2
2017-Sep-12 09:30N 34°42' E 135°15'3 6.1
2017-Sep-12 09:00N 34°39' E 135°16'510.5
2017-Sep-12 08:30N 34°36' E 135°11'611.2
2017-Sep-12 08:00N 34°35' E 135°04'  
Track history (hours):
 
Tides and Currents Weather Stations Pressure Air Temp Water Temp Dewpoint Dewpoint Depression Visibility Wind Speed Wind Dir Waves Ship Positions

Hishou Maru

Last reported at 2017-Sep-21 17:30 UTC. Time now 2017-Sep-21 17:44 UTC.
Position N 34°42' E 135°15'.

Length 76 m; draft 4.1 m.

Type: Cargo ship. MMSI: 431600889.

Date/timePositionNaut miles runAvg speedWind from/ knotsBaromVisibWave heightAir tempDewpointWater temp
2017-Sep-21 17:30N 34°42' E 135°15'0 0.0
2017-Sep-21 17:00N 34°42' E 135°15'0 0.0
2017-Sep-21 16:30N 34°42' E 135°15'0 0.0
2017-Sep-21 16:00N 34°42' E 135°15'0 0.0
2017-Sep-21 15:30N 34°42' E 135°15'0 0.0
2017-Sep-21 15:00N 34°42' E 135°15'0 0.2
2017-Sep-21 14:30N 34°42' E 135°15'4 7.7
2017-Sep-21 14:00N 34°38' E 135°16'510.3
2017-Sep-21 13:30N 34°36' E 135°10'510.1
2017-Sep-21 13:00N 34°35' E 135°04'5 8.6
2017-Sep-21 12:26N 34°37' E 134°58'3 0.1
2017-Sep-20 09:07N 34°37' E 135°01'213.1
2017-Sep-20 09:00N 34°36' E 135°03'611.4
2017-Sep-20 08:30N 34°37' E 135°10'510.5
2017-Sep-20 08:00N 34°38' E 135°16'4 7.4
2017-Sep-20 07:30N 34°42' E 135°15'0 0.0
2017-Sep-20 07:00N 34°42' E 135°15'0 0.0
2017-Sep-20 06:30N 34°42' E 135°15'0 0.0
2017-Sep-20 06:00N 34°42' E 135°15'0 0.0
2017-Sep-20 05:30N 34°42' E 135°15'0 0.0
2017-Sep-20 05:00N 34°42' E 135°15'0 0.0
2017-Sep-20 04:30N 34°42' E 135°15'0 0.0
2017-Sep-20 04:00N 34°42' E 135°15'0 0.0
2017-Sep-20 03:30N 34°42' E 135°15'0 0.0
2017-Sep-20 03:00N 34°42' E 135°15'0 0.0
2017-Sep-20 02:30N 34°42' E 135°15'0 0.0
2017-Sep-20 02:00N 34°42' E 135°15'0 0.0
2017-Sep-20 01:30N 34°42' E 135°15'0 0.0
2017-Sep-20 01:00N 34°42' E 135°15'0 0.0
2017-Sep-20 00:30N 34°42' E 135°15'0 0.0
2017-Sep-20 00:00N 34°42' E 135°15'0 0.0
2017-Sep-19 23:30N 34°42' E 135°15'0 0.0
2017-Sep-19 23:00N 34°42' E 135°15'0 0.0
2017-Sep-19 22:30N 34°42' E 135°15'0 0.0
2017-Sep-19 22:00N 34°42' E 135°15'0 0.0
2017-Sep-19 21:30N 34°42' E 135°15'0 0.0
2017-Sep-19 21:00N 34°42' E 135°15'0 0.0
2017-Sep-19 20:30N 34°42' E 135°15'0 0.0
2017-Sep-19 20:00N 34°42' E 135°15'0 0.0
2017-Sep-19 19:30N 34°42' E 135°15'0 0.0
2017-Sep-19 19:00N 34°42' E 135°15'0 0.0
2017-Sep-19 18:30N 34°42' E 135°15'0 0.0
2017-Sep-19 18:00N 34°42' E 135°15'0 0.0
2017-Sep-19 17:30N 34°42' E 135°15'0 0.0
2017-Sep-19 17:00N 34°42' E 135°15'0 0.0
2017-Sep-19 16:30N 34°42' E 135°15'0 0.0
2017-Sep-19 16:00N 34°42' E 135°15'0 0.0
2017-Sep-19 15:30N 34°42' E 135°15'0 0.0
2017-Sep-19 15:00N 34°42' E 135°15'0 0.0
2017-Sep-19 14:30N 34°42' E 135°15'0 0.0
2017-Sep-19 14:00N 34°42' E 135°15'0 0.0
2017-Sep-19 13:30N 34°42' E 135°15'0 0.0
2017-Sep-19 13:00N 34°42' E 135°15'0 0.0
2017-Sep-19 12:30N 34°42' E 135°15'0 0.0
2017-Sep-19 12:00N 34°42' E 135°15'0 0.0
2017-Sep-19 11:30N 34°42' E 135°15'0 0.0
2017-Sep-19 11:00N 34°42' E 135°15'0 0.0
2017-Sep-19 10:30N 34°42' E 135°15'0 0.0
2017-Sep-19 10:00N 34°42' E 135°15'0 0.0
2017-Sep-19 09:30N 34°42' E 135°15'0 0.0
2017-Sep-19 09:00N 34°42' E 135°15'0 0.0
2017-Sep-19 08:30N 34°42' E 135°15'0 0.0
2017-Sep-19 08:00N 34°42' E 135°15'0 0.0
2017-Sep-19 07:30N 34°42' E 135°15'0 0.0
2017-Sep-19 07:00N 34°42' E 135°15'0 0.0
2017-Sep-19 06:30N 34°42' E 135°15'0 0.0
2017-Sep-19 06:00N 34°42' E 135°15'0 0.0
2017-Sep-19 05:30N 34°42' E 135°15'0 0.0
2017-Sep-19 05:00N 34°42' E 135°15'0 0.0
2017-Sep-19 04:30N 34°42' E 135°15'0 0.0
2017-Sep-19 04:00N 34°42' E 135°15'0 0.0
2017-Sep-19 03:30N 34°42' E 135°15'0 0.0
2017-Sep-19 03:00N 34°42' E 135°15'0 0.0
2017-Sep-19 02:30N 34°42' E 135°15'0 0.0
2017-Sep-19 02:00N 34°42' E 135°15'0 0.0
2017-Sep-19 01:30N 34°42' E 135°15'0 0.0
2017-Sep-19 01:00N 34°42' E 135°15'0 0.0
2017-Sep-19 00:30N 34°42' E 135°15'0 0.0
2017-Sep-19 00:00N 34°42' E 135°15'2 4.7
2017-Sep-18 23:30N 34°40' E 135°15'4 8.2
2017-Sep-18 22:59N 34°37' E 135°12'511.1
2017-Sep-18 22:30N 34°35' E 135°05'4 8.6
2017-Sep-18 22:00N 34°37' E 135°01'4 8.9
2017-Sep-18 21:30N 34°36' E 134°56'7 0.1
2017-Sep-16 18:34N 34°38' E 134°48'611.9
2017-Sep-16 18:05N 34°37' E 134°55'112.0
2017-Sep-16 18:00N 34°37' E 134°56'511.0
2017-Sep-16 17:30N 34°37' E 135°03'611.1
2017-Sep-16 17:00N 34°37' E 135°09'611.4
2017-Sep-16 16:30N 34°38' E 135°16'4 7.4
2017-Sep-16 16:00N 34°42' E 135°15'0 0.0
2017-Sep-16 15:30N 34°42' E 135°15'0 0.0
2017-Sep-16 15:00N 34°42' E 135°15'0 0.0
2017-Sep-16 14:30N 34°42' E 135°15'0 0.0
2017-Sep-16 14:00N 34°42' E 135°15'0 0.0
2017-Sep-16 13:30N 34°42' E 135°15'0 0.0
2017-Sep-16 13:00N 34°42' E 135°15'0 0.0
2017-Sep-16 12:30N 34°42' E 135°15'0 0.0
2017-Sep-16 12:00N 34°42' E 135°15'0 0.0
2017-Sep-16 11:30N 34°42' E 135°15'0 0.0
2017-Sep-16 11:00N 34°42' E 135°15'0 0.0
2017-Sep-16 10:30N 34°42' E 135°15'0 0.0
2017-Sep-16 10:00N 34°42' E 135°15'0 0.0
2017-Sep-16 09:30N 34°42' E 135°15'0 0.0
2017-Sep-16 09:00N 34°42' E 135°15'0 0.0
2017-Sep-16 08:30N 34°42' E 135°15'0 0.0
2017-Sep-16 08:00N 34°42' E 135°15'0 0.0
2017-Sep-16 07:30N 34°42' E 135°15'0 0.0
2017-Sep-16 07:00N 34°42' E 135°15'0 0.0
2017-Sep-16 06:30N 34°42' E 135°15'0 0.0
2017-Sep-16 06:00N 34°42' E 135°15'0 0.0
2017-Sep-16 05:30N 34°42' E 135°15'0 0.0
2017-Sep-16 05:00N 34°42' E 135°15'0 0.0
2017-Sep-16 04:30N 34°42' E 135°15'0 0.0
2017-Sep-16 04:00N 34°42' E 135°15'0 0.0
2017-Sep-16 03:30N 34°42' E 135°15'0 0.0
2017-Sep-16 03:00N 34°42' E 135°15'0 0.0
2017-Sep-16 02:30N 34°42' E 135°15'0 0.0
2017-Sep-16 02:00N 34°42' E 135°15'0 0.0
2017-Sep-16 01:30N 34°42' E 135°15'0 0.0
2017-Sep-16 01:00N 34°42' E 135°15'0 0.0
2017-Sep-16 00:30N 34°42' E 135°15'0 0.0
2017-Sep-16 00:00N 34°42' E 135°15'0 0.0
2017-Sep-15 23:30N 34°42' E 135°15'0 0.0
2017-Sep-15 23:00N 34°42' E 135°15'0 0.0
2017-Sep-15 22:30N 34°42' E 135°15'0 0.0
2017-Sep-15 22:00N 34°42' E 135°15'0 0.0
2017-Sep-15 21:30N 34°42' E 135°15'0 0.0
2017-Sep-15 21:00N 34°42' E 135°15'0 0.0
2017-Sep-15 20:30N 34°42' E 135°15'0 0.0
2017-Sep-15 20:00N 34°42' E 135°15'0 0.0
2017-Sep-15 19:30N 34°42' E 135°15'0 0.0
2017-Sep-15 19:00N 34°42' E 135°15'0 0.0
2017-Sep-15 18:30N 34°42' E 135°15'0 0.0
2017-Sep-15 18:00N 34°42' E 135°15'0 0.0
2017-Sep-15 17:30N 34°42' E 135°15'0 0.0
2017-Sep-15 17:00N 34°42' E 135°15'0 0.0
2017-Sep-15 16:30N 34°42' E 135°15'0 0.0
2017-Sep-15 16:00N 34°42' E 135°15'0 0.0
2017-Sep-15 15:30N 34°42' E 135°15'0 0.0
2017-Sep-15 15:00N 34°42' E 135°15'0 0.0
2017-Sep-15 14:30N 34°42' E 135°15'0 0.0
2017-Sep-15 14:00N 34°42' E 135°15'0 0.0
2017-Sep-15 13:30N 34°42' E 135°15'0 0.0
2017-Sep-15 12:59N 34°42' E 135°15'0 0.0
2017-Sep-15 12:30N 34°42' E 135°15'0 0.0
2017-Sep-15 12:00N 34°42' E 135°15'0 0.0
2017-Sep-15 11:30N 34°42' E 135°15'0 0.0
2017-Sep-15 11:00N 34°42' E 135°15'0 0.0
2017-Sep-15 10:30N 34°42' E 135°15'0 0.0
2017-Sep-15 10:00N 34°42' E 135°15'0 0.0
2017-Sep-15 09:30N 34°42' E 135°15'0 0.0
2017-Sep-15 09:00N 34°42' E 135°15'0 0.0
2017-Sep-15 08:30N 34°42' E 135°15'0 0.0
2017-Sep-15 08:00N 34°42' E 135°15'0 0.0
2017-Sep-15 07:30N 34°42' E 135°15'0 0.7
2017-Sep-15 07:00N 34°42' E 135°15'4 8.7
2017-Sep-15 06:30N 34°37' E 135°15'510.8
2017-Sep-15 06:00N 34°35' E 135°09'5 9.5
2017-Sep-15 05:29N 34°36' E 135°03'1 0.1
2017-Sep-14 05:22N 34°37' E 135°02'512.4
2017-Sep-14 05:00N 34°36' E 135°07'611.8
2017-Sep-14 04:30N 34°37' E 135°14'4 8.7
2017-Sep-14 04:00N 34°42' E 135°15'0 0.6
2017-Sep-14 03:30N 34°42' E 135°15'0 0.0
2017-Sep-14 03:00N 34°42' E 135°15'0 0.0
2017-Sep-14 02:30N 34°42' E 135°15'0 0.0
2017-Sep-14 02:00N 34°42' E 135°15'0 0.0
2017-Sep-14 01:30N 34°42' E 135°15'0 0.0
2017-Sep-14 00:59N 34°42' E 135°15'0 0.0
2017-Sep-14 00:30N 34°42' E 135°15'0 0.0
2017-Sep-14 00:00N 34°42' E 135°15'0 0.0
2017-Sep-13 23:30N 34°42' E 135°15'0 0.0
2017-Sep-13 23:00N 34°42' E 135°15'0 0.0
2017-Sep-13 22:30N 34°42' E 135°15'0 0.0
2017-Sep-13 22:00N 34°42' E 135°15'0 0.0
2017-Sep-13 21:30N 34°42' E 135°15'0 0.0
2017-Sep-13 21:00N 34°42' E 135°15'0 0.0
2017-Sep-13 20:30N 34°42' E 135°15'0 0.0
2017-Sep-13 20:00N 34°42' E 135°15'0 0.0
2017-Sep-13 19:30N 34°42' E 135°15'0 0.0
2017-Sep-13 19:00N 34°42' E 135°15'0 0.0
2017-Sep-13 18:30N 34°42' E 135°15'0 0.0
2017-Sep-13 18:00N 34°42' E 135°15'0 0.0
2017-Sep-13 17:30N 34°42' E 135°15'0 0.0
2017-Sep-13 17:00N 34°42' E 135°15'0 0.0
2017-Sep-13 16:30N 34°42' E 135°15'0 0.0
2017-Sep-13 16:00N 34°42' E 135°15'0 0.0
2017-Sep-13 15:30N 34°42' E 135°15'0 0.0
2017-Sep-13 15:00N 34°42' E 135°15'0 0.0
2017-Sep-13 14:30N 34°42' E 135°15'0 0.0
2017-Sep-13 14:00N 34°42' E 135°15'0 0.0
2017-Sep-13 13:30N 34°42' E 135°15'0 0.0
2017-Sep-13 13:00N 34°42' E 135°15'0 0.0
2017-Sep-13 12:30N 34°42' E 135°15'0 0.0
2017-Sep-13 12:00N 34°42' E 135°15'0 0.0
2017-Sep-13 11:30N 34°42' E 135°15'0 0.0
2017-Sep-13 11:00N 34°42' E 135°15'0 0.0
2017-Sep-13 10:30N 34°42' E 135°15'0 0.0
2017-Sep-13 10:00N 34°42' E 135°15'0 0.0
2017-Sep-13 09:30N 34°42' E 135°15'0 0.0
2017-Sep-13 09:00N 34°42' E 135°15'0 0.0
2017-Sep-13 08:30N 34°42' E 135°15'0 0.0
2017-Sep-13 08:00N 34°42' E 135°15'0 0.0
2017-Sep-13 07:30N 34°42' E 135°15'0 0.0
2017-Sep-13 07:00N 34°42' E 135°15'0 0.0
2017-Sep-13 06:30N 34°42' E 135°15'0 0.0
2017-Sep-13 06:00N 34°42' E 135°15'0 0.0
2017-Sep-13 05:30N 34°42' E 135°15'0 0.0
2017-Sep-13 05:00N 34°42' E 135°15'0 0.0
2017-Sep-13 04:30N 34°42' E 135°15'0 0.0
2017-Sep-13 04:00N 34°42' E 135°15'0 0.0
2017-Sep-13 03:30N 34°42' E 135°15'0 0.0
2017-Sep-13 03:00N 34°42' E 135°15'0 0.0
2017-Sep-13 02:30N 34°42' E 135°15'0 0.0
2017-Sep-13 02:00N 34°42' E 135°15'0 0.0
2017-Sep-13 01:30N 34°42' E 135°15'0 0.0
2017-Sep-13 01:00N 34°42' E 135°15'0 0.0
2017-Sep-13 00:30N 34°42' E 135°15'0 0.0
2017-Sep-13 00:00N 34°42' E 135°15'0 0.0
2017-Sep-12 23:30N 34°42' E 135°15'0 0.0
2017-Sep-12 23:00N 34°42' E 135°15'0 0.0
2017-Sep-12 22:30N 34°42' E 135°15'0 0.0
2017-Sep-12 22:00N 34°42' E 135°15'0 0.0
2017-Sep-12 21:30N 34°42' E 135°15'0 0.0
2017-Sep-12 21:00N 34°42' E 135°15'0 0.0
2017-Sep-12 20:30N 34°42' E 135°15'0 0.0
2017-Sep-12 20:00N 34°42' E 135°15'0 0.0
2017-Sep-12 19:30N 34°42' E 135°15'0 0.0
2017-Sep-12 19:00N 34°42' E 135°15'0 0.0
2017-Sep-12 18:30N 34°42' E 135°15'0 0.0
2017-Sep-12 18:00N 34°42' E 135°15'0 0.0
2017-Sep-12 17:30N 34°42' E 135°15'0 0.0
2017-Sep-12 17:00N 34°42' E 135°15'0 0.0
2017-Sep-12 16:30N 34°42' E 135°15'0 0.0
2017-Sep-12 16:00N 34°42' E 135°15'0 0.0
2017-Sep-12 15:30N 34°42' E 135°15'0 0.0
2017-Sep-12 15:00N 34°42' E 135°15'0 0.0
2017-Sep-12 14:30N 34°42' E 135°15'0 0.0
2017-Sep-12 14:00N 34°42' E 135°15'0 0.0
2017-Sep-12 13:30N 34°42' E 135°15'0 0.0
2017-Sep-12 13:00N 34°42' E 135°15'0 0.0
2017-Sep-12 12:30N 34°42' E 135°15'0 0.0
2017-Sep-12 12:00N 34°42' E 135°15'0 0.0
2017-Sep-12 11:30N 34°42' E 135°15'0 0.0
2017-Sep-12 11:00N 34°42' E 135°15'0 0.0
2017-Sep-12 10:30N 34°42' E 135°15'0 0.0
2017-Sep-12 10:00N 34°42' E 135°15'0 0.2
2017-Sep-12 09:30N 34°42' E 135°15'3 6.1
2017-Sep-12 09:00N 34°39' E 135°16'510.5
2017-Sep-12 08:30N 34°36' E 135°11'611.2
2017-Sep-12 08:00N 34°35' E 135°04'  

Dump ship's entire track history